sensor_id;sensor_type;location;lat;lon;timestamp;temperature;humidity
27540;DHT22;15906;52.046;4.724;2023-06-19T00:01:47;21.70;98.80
27540;DHT22;15906;52.046;4.724;2023-06-19T00:04:13;21.70;99.30
27540;DHT22;15906;52.046;4.724;2023-06-19T00:06:41;21.70;99.60
27540;DHT22;15906;52.046;4.724;2023-06-19T00:09:07;21.70;99.90
27540;DHT22;15906;52.046;4.724;2023-06-19T00:11:33;21.60;99.90
27540;DHT22;15906;52.046;4.724;2023-06-19T00:13:58;21.50;99.90
27540;DHT22;15906;52.046;4.724;2023-06-19T00:16:24;21.60;99.90
27540;DHT22;15906;52.046;4.724;2023-06-19T00:18:51;21.50;99.90
27540;DHT22;15906;52.046;4.724;2023-06-19T00:21:17;21.60;99.90
27540;DHT22;15906;52.046;4.724;2023-06-19T00:23:42;21.60;99.90
27540;DHT22;15906;52.046;4.724;2023-06-19T00:26:08;21.50;99.90
27540;DHT22;15906;52.046;4.724;2023-06-19T00:28:34;21.60;99.90
27540;DHT22;15906;52.046;4.724;2023-06-19T00:30:59;21.40;99.90
27540;DHT22;15906;52.046;4.724;2023-06-19T00:33:25;21.30;99.90
27540;DHT22;15906;52.046;4.724;2023-06-19T00:35:51;21.20;99.90
27540;DHT22;15906;52.046;4.724;2023-06-19T00:38:17;21.20;99.90
27540;DHT22;15906;52.046;4.724;2023-06-19T00:40:42;21.20;99.90
27540;DHT22;15906;52.046;4.724;2023-06-19T00:43:08;21.20;99.90
27540;DHT22;15906;52.046;4.724;2023-06-19T00:45:34;21.20;99.90
27540;DHT22;15906;52.046;4.724;2023-06-19T00:48:00;21.10;99.90
27540;DHT22;15906;52.046;4.724;2023-06-19T00:50:28;21.10;99.90
27540;DHT22;15906;52.046;4.724;2023-06-19T00:52:55;21.10;99.90
27540;DHT22;15906;52.046;4.724;2023-06-19T00:55:21;21.10;99.90
27540;DHT22;15906;52.046;4.724;2023-06-19T00:57:48;21.00;99.90
27540;DHT22;15906;52.046;4.724;2023-06-19T01:00:14;21.00;99.90
27540;DHT22;15906;52.046;4.724;2023-06-19T01:02:40;20.90;99.90
27540;DHT22;15906;52.046;4.724;2023-06-19T01:05:06;20.90;99.90
27540;DHT22;15906;52.046;4.724;2023-06-19T01:07:44;20.80;99.90
27540;DHT22;15906;52.046;4.724;2023-06-19T01:10:15;20.80;99.90
27540;DHT22;15906;52.046;4.724;2023-06-19T01:12:46;20.80;99.90
27540;DHT22;15906;52.046;4.724;2023-06-19T01:15:16;20.70;99.90
27540;DHT22;15906;52.046;4.724;2023-06-19T01:17:42;20.70;99.90
27540;DHT22;15906;52.046;4.724;2023-06-19T01:20:09;20.60;99.90
27540;DHT22;15906;52.046;4.724;2023-06-19T01:22:36;20.50;99.90
27540;DHT22;15906;52.046;4.724;2023-06-19T01:25:01;20.50;99.90
27540;DHT22;15906;52.046;4.724;2023-06-19T01:27:27;20.60;99.90
27540;DHT22;15906;52.046;4.724;2023-06-19T01:30:00;20.50;99.90
27540;DHT22;15906;52.046;4.724;2023-06-19T01:32:34;20.50;99.90
27540;DHT22;15906;52.046;4.724;2023-06-19T01:35:01;20.50;99.90
27540;DHT22;15906;52.046;4.724;2023-06-19T01:37:28;20.50;99.90
27540;DHT22;15906;52.046;4.724;2023-06-19T01:39:57;20.40;99.90
27540;DHT22;15906;52.046;4.724;2023-06-19T01:42:25;20.30;99.90
27540;DHT22;15906;52.046;4.724;2023-06-19T01:44:51;20.30;99.90
27540;DHT22;15906;52.046;4.724;2023-06-19T01:47:18;20.30;99.90
27540;DHT22;15906;52.046;4.724;2023-06-19T01:49:48;20.30;99.90
27540;DHT22;15906;52.046;4.724;2023-06-19T01:52:14;20.30;99.90
27540;DHT22;15906;52.046;4.724;2023-06-19T01:54:39;20.30;99.90
27540;DHT22;15906;52.046;4.724;2023-06-19T01:57:05;20.30;99.90
27540;DHT22;15906;52.046;4.724;2023-06-19T01:59:31;20.30;99.90
27540;DHT22;15906;52.046;4.724;2023-06-19T02:01:57;20.30;99.90
27540;DHT22;15906;52.046;4.724;2023-06-19T02:04:23;20.30;99.90
27540;DHT22;15906;52.046;4.724;2023-06-19T02:06:48;20.30;99.90
27540;DHT22;15906;52.046;4.724;2023-06-19T02:09:14;20.30;99.90
27540;DHT22;15906;52.046;4.724;2023-06-19T02:11:39;20.30;99.90
27540;DHT22;15906;52.046;4.724;2023-06-19T02:14:05;20.30;99.90
27540;DHT22;15906;52.046;4.724;2023-06-19T02:16:30;20.30;99.90
27540;DHT22;15906;52.046;4.724;2023-06-19T02:18:56;20.30;99.90
27540;DHT22;15906;52.046;4.724;2023-06-19T02:21:22;20.40;99.90
27540;DHT22;15906;52.046;4.724;2023-06-19T02:23:48;20.30;99.90
27540;DHT22;15906;52.046;4.724;2023-06-19T02:26:14;20.20;99.90
27540;DHT22;15906;52.046;4.724;2023-06-19T02:28:39;20.30;99.90
27540;DHT22;15906;52.046;4.724;2023-06-19T02:31:05;20.20;99.90
27540;DHT22;15906;52.046;4.724;2023-06-19T02:33:30;20.20;99.90
27540;DHT22;15906;52.046;4.724;2023-06-19T02:35:57;20.20;99.90
27540;DHT22;15906;52.046;4.724;2023-06-19T02:38:25;20.30;99.90
27540;DHT22;15906;52.046;4.724;2023-06-19T02:40:50;20.20;99.90
27540;DHT22;15906;52.046;4.724;2023-06-19T02:43:16;20.20;99.90
27540;DHT22;15906;52.046;4.724;2023-06-19T02:45:41;20.20;99.90
27540;DHT22;15906;52.046;4.724;2023-06-19T02:48:07;20.20;99.90
27540;DHT22;15906;52.046;4.724;2023-06-19T02:50:33;20.10;99.90
27540;DHT22;15906;52.046;4.724;2023-06-19T02:52:58;20.30;99.90
27540;DHT22;15906;52.046;4.724;2023-06-19T02:55:24;20.30;99.90
27540;DHT22;15906;52.046;4.724;2023-06-19T02:57:49;20.20;99.90
27540;DHT22;15906;52.046;4.724;2023-06-19T03:00:15;20.20;99.90
27540;DHT22;15906;52.046;4.724;2023-06-19T03:02:41;20.10;99.90
27540;DHT22;15906;52.046;4.724;2023-06-19T03:05:09;20.10;99.90
27540;DHT22;15906;52.046;4.724;2023-06-19T03:07:35;20.10;99.90
27540;DHT22;15906;52.046;4.724;2023-06-19T03:10:01;20.10;99.90
27540;DHT22;15906;52.046;4.724;2023-06-19T03:12:26;20.10;99.90
27540;DHT22;15906;52.046;4.724;2023-06-19T03:14:52;20.10;99.90
27540;DHT22;15906;52.046;4.724;2023-06-19T03:17:17;20.10;99.90
27540;DHT22;15906;52.046;4.724;2023-06-19T03:19:43;20.00;99.90
27540;DHT22;15906;52.046;4.724;2023-06-19T03:22:08;19.90;99.90
27540;DHT22;15906;52.046;4.724;2023-06-19T03:24:35;20.00;99.90
27540;DHT22;15906;52.046;4.724;2023-06-19T03:27:00;19.90;99.90
27540;DHT22;15906;52.046;4.724;2023-06-19T03:29:26;19.80;99.90
27540;DHT22;15906;52.046;4.724;2023-06-19T03:31:51;19.90;99.90
27540;DHT22;15906;52.046;4.724;2023-06-19T03:34:17;19.70;99.90
27540;DHT22;15906;52.046;4.724;2023-06-19T03:36:42;19.70;99.90
27540;DHT22;15906;52.046;4.724;2023-06-19T03:39:08;19.80;99.90
27540;DHT22;15906;52.046;4.724;2023-06-19T03:41:33;19.70;99.90
27540;DHT22;15906;52.046;4.724;2023-06-19T03:43:59;19.80;99.90
27540;DHT22;15906;52.046;4.724;2023-06-19T03:46:24;19.70;99.90
27540;DHT22;15906;52.046;4.724;2023-06-19T03:48:50;19.80;99.90
27540;DHT22;15906;52.046;4.724;2023-06-19T03:51:15;19.70;99.90
27540;DHT22;15906;52.046;4.724;2023-06-19T03:53:41;19.80;99.90
27540;DHT22;15906;52.046;4.724;2023-06-19T03:56:07;19.70;99.90
27540;DHT22;15906;52.046;4.724;2023-06-19T03:58:33;19.70;99.90
27540;DHT22;15906;52.046;4.724;2023-06-19T04:00:58;19.80;99.90
27540;DHT22;15906;52.046;4.724;2023-06-19T04:03:24;19.80;99.90
27540;DHT22;15906;52.046;4.724;2023-06-19T04:05:50;19.90;99.90
27540;DHT22;15906;52.046;4.724;2023-06-19T04:08:16;19.80;99.90
27540;DHT22;15906;52.046;4.724;2023-06-19T04:10:41;19.80;99.90
27540;DHT22;15906;52.046;4.724;2023-06-19T04:13:07;19.80;99.90
27540;DHT22;15906;52.046;4.724;2023-06-19T04:15:33;19.80;99.90
27540;DHT22;15906;52.046;4.724;2023-06-19T04:17:59;19.80;99.90
27540;DHT22;15906;52.046;4.724;2023-06-19T04:20:26;19.80;99.90
27540;DHT22;15906;52.046;4.724;2023-06-19T04:22:52;19.80;99.90
27540;DHT22;15906;52.046;4.724;2023-06-19T04:25:18;19.80;99.90
27540;DHT22;15906;52.046;4.724;2023-06-19T04:27:44;19.80;99.90
27540;DHT22;15906;52.046;4.724;2023-06-19T04:30:12;19.70;99.90
27540;DHT22;15906;52.046;4.724;2023-06-19T04:32:38;19.80;99.90
27540;DHT22;15906;52.046;4.724;2023-06-19T04:35:08;19.70;99.90
27540;DHT22;15906;52.046;4.724;2023-06-19T04:37:33;19.60;99.90
27540;DHT22;15906;52.046;4.724;2023-06-19T04:39:59;19.60;99.90
27540;DHT22;15906;52.046;4.724;2023-06-19T04:42:25;19.50;99.90
27540;DHT22;15906;52.046;4.724;2023-06-19T04:44:51;19.50;99.90
27540;DHT22;15906;52.046;4.724;2023-06-19T04:47:20;19.50;99.90
27540;DHT22;15906;52.046;4.724;2023-06-19T04:49:46;19.40;99.90
27540;DHT22;15906;52.046;4.724;2023-06-19T04:52:11;19.40;99.90
27540;DHT22;15906;52.046;4.724;2023-06-19T04:54:37;19.40;99.90
27540;DHT22;15906;52.046;4.724;2023-06-19T04:57:03;19.40;99.90
27540;DHT22;15906;52.046;4.724;2023-06-19T04:59:30;19.40;99.90
27540;DHT22;15906;52.046;4.724;2023-06-19T05:01:56;19.30;99.90
27540;DHT22;15906;52.046;4.724;2023-06-19T05:04:22;19.30;99.90
27540;DHT22;15906;52.046;4.724;2023-06-19T05:06:51;19.30;99.90
27540;DHT22;15906;52.046;4.724;2023-06-19T05:09:17;19.30;99.90
27540;DHT22;15906;52.046;4.724;2023-06-19T05:11:43;19.20;99.90
27540;DHT22;15906;52.046;4.724;2023-06-19T05:14:08;19.30;99.90
27540;DHT22;15906;52.046;4.724;2023-06-19T05:16:34;19.20;99.90
27540;DHT22;15906;52.046;4.724;2023-06-19T05:19:00;19.30;99.90
27540;DHT22;15906;52.046;4.724;2023-06-19T05:21:26;19.30;99.90
27540;DHT22;15906;52.046;4.724;2023-06-19T05:23:51;19.30;99.90
27540;DHT22;15906;52.046;4.724;2023-06-19T05:26:18;19.40;99.90
27540;DHT22;15906;52.046;4.724;2023-06-19T05:28:44;19.30;99.90
27540;DHT22;15906;52.046;4.724;2023-06-19T05:31:09;19.30;99.90
27540;DHT22;15906;52.046;4.724;2023-06-19T05:33:35;19.20;99.90
27540;DHT22;15906;52.046;4.724;2023-06-19T05:36:00;19.20;99.90
27540;DHT22;15906;52.046;4.724;2023-06-19T05:38:26;19.30;99.90
27540;DHT22;15906;52.046;4.724;2023-06-19T05:40:55;19.40;99.90
27540;DHT22;15906;52.046;4.724;2023-06-19T05:43:21;19.30;99.90
27540;DHT22;15906;52.046;4.724;2023-06-19T05:45:47;19.40;99.90
27540;DHT22;15906;52.046;4.724;2023-06-19T05:48:13;19.40;99.90
27540;DHT22;15906;52.046;4.724;2023-06-19T05:50:39;19.30;99.90
27540;DHT22;15906;52.046;4.724;2023-06-19T05:53:05;19.40;99.90
27540;DHT22;15906;52.046;4.724;2023-06-19T05:55:31;19.40;99.90
27540;DHT22;15906;52.046;4.724;2023-06-19T05:57:58;19.50;99.90
27540;DHT22;15906;52.046;4.724;2023-06-19T06:00:23;19.30;99.90
27540;DHT22;15906;52.046;4.724;2023-06-19T06:02:49;19.40;99.90
27540;DHT22;15906;52.046;4.724;2023-06-19T06:05:17;19.30;99.90
27540;DHT22;15906;52.046;4.724;2023-06-19T06:07:44;19.40;99.90
27540;DHT22;15906;52.046;4.724;2023-06-19T06:10:10;19.40;99.90
27540;DHT22;15906;52.046;4.724;2023-06-19T06:12:36;19.40;99.90
27540;DHT22;15906;52.046;4.724;2023-06-19T06:15:03;19.40;99.90
27540;DHT22;15906;52.046;4.724;2023-06-19T06:17:29;19.30;99.90
27540;DHT22;15906;52.046;4.724;2023-06-19T06:19:54;19.40;99.90
27540;DHT22;15906;52.046;4.724;2023-06-19T06:22:20;19.30;99.90
27540;DHT22;15906;52.046;4.724;2023-06-19T06:24:45;19.30;99.90
27540;DHT22;15906;52.046;4.724;2023-06-19T06:27:12;19.20;99.90
27540;DHT22;15906;52.046;4.724;2023-06-19T06:29:38;19.20;99.90
27540;DHT22;15906;52.046;4.724;2023-06-19T06:32:05;19.30;99.90
27540;DHT22;15906;52.046;4.724;2023-06-19T06:34:32;19.30;99.90
27540;DHT22;15906;52.046;4.724;2023-06-19T06:36:58;19.20;99.90
27540;DHT22;15906;52.046;4.724;2023-06-19T06:39:24;19.30;99.90
27540;DHT22;15906;52.046;4.724;2023-06-19T06:41:49;19.40;99.90
27540;DHT22;15906;52.046;4.724;2023-06-19T06:44:15;19.40;99.90
27540;DHT22;15906;52.046;4.724;2023-06-19T06:46:41;19.50;99.90
27540;DHT22;15906;52.046;4.724;2023-06-19T06:49:06;19.60;99.90
27540;DHT22;15906;52.046;4.724;2023-06-19T06:51:32;19.70;99.90
27540;DHT22;15906;52.046;4.724;2023-06-19T06:53:57;19.80;99.90
27540;DHT22;15906;52.046;4.724;2023-06-19T06:56:23;19.90;99.90
27540;DHT22;15906;52.046;4.724;2023-06-19T06:58:48;20.10;99.90
27540;DHT22;15906;52.046;4.724;2023-06-19T07:01:14;20.20;99.90
27540;DHT22;15906;52.046;4.724;2023-06-19T07:03:40;20.30;99.90
27540;DHT22;15906;52.046;4.724;2023-06-19T07:06:05;20.50;99.90
27540;DHT22;15906;52.046;4.724;2023-06-19T07:08:31;20.60;99.90
27540;DHT22;15906;52.046;4.724;2023-06-19T07:10:56;20.60;99.90
27540;DHT22;15906;52.046;4.724;2023-06-19T07:13:23;20.60;99.90
27540;DHT22;15906;52.046;4.724;2023-06-19T07:15:48;20.70;99.90
27540;DHT22;15906;52.046;4.724;2023-06-19T07:18:14;20.80;99.90
27540;DHT22;15906;52.046;4.724;2023-06-19T07:20:39;21.00;99.90
27540;DHT22;15906;52.046;4.724;2023-06-19T07:23:05;21.20;99.90
27540;DHT22;15906;52.046;4.724;2023-06-19T07:25:31;21.40;99.90
27540;DHT22;15906;52.046;4.724;2023-06-19T07:27:59;21.60;99.90
27540;DHT22;15906;52.046;4.724;2023-06-19T07:30:25;21.60;99.90
27540;DHT22;15906;52.046;4.724;2023-06-19T07:32:51;21.60;99.90
27540;DHT22;15906;52.046;4.724;2023-06-19T07:35:17;21.60;99.90
27540;DHT22;15906;52.046;4.724;2023-06-19T07:37:42;21.70;99.90
27540;DHT22;15906;52.046;4.724;2023-06-19T07:40:08;21.80;99.90
27540;DHT22;15906;52.046;4.724;2023-06-19T07:42:34;21.70;99.90
27540;DHT22;15906;52.046;4.724;2023-06-19T07:45:00;21.90;99.90
27540;DHT22;15906;52.046;4.724;2023-06-19T07:47:26;21.90;99.90
27540;DHT22;15906;52.046;4.724;2023-06-19T07:49:52;22.10;99.90
27540;DHT22;15906;52.046;4.724;2023-06-19T07:52:17;22.20;99.90
27540;DHT22;15906;52.046;4.724;2023-06-19T07:54:54;22.00;99.90
27540;DHT22;15906;52.046;4.724;2023-06-19T07:57:20;21.80;99.90
27540;DHT22;15906;52.046;4.724;2023-06-19T07:59:48;21.90;99.90
27540;DHT22;15906;52.046;4.724;2023-06-19T08:02:13;22.00;99.90
27540;DHT22;15906;52.046;4.724;2023-06-19T08:04:39;21.90;99.90
27540;DHT22;15906;52.046;4.724;2023-06-19T08:07:05;21.70;99.90
27540;DHT22;15906;52.046;4.724;2023-06-19T08:09:31;21.80;99.90
27540;DHT22;15906;52.046;4.724;2023-06-19T08:11:57;21.80;99.90
27540;DHT22;15906;52.046;4.724;2023-06-19T08:14:22;21.80;99.90
27540;DHT22;15906;52.046;4.724;2023-06-19T08:16:48;21.60;99.90
27540;DHT22;15906;52.046;4.724;2023-06-19T08:19:14;21.60;99.90
27540;DHT22;15906;52.046;4.724;2023-06-19T08:21:39;21.50;99.90
27540;DHT22;15906;52.046;4.724;2023-06-19T08:24:05;21.40;99.90
27540;DHT22;15906;52.046;4.724;2023-06-19T08:26:31;21.30;99.90
27540;DHT22;15906;52.046;4.724;2023-06-19T08:28:57;21.30;99.90
27540;DHT22;15906;52.046;4.724;2023-06-19T08:31:22;21.50;99.90
27540;DHT22;15906;52.046;4.724;2023-06-19T08:33:53;21.60;99.90
27540;DHT22;15906;52.046;4.724;2023-06-19T08:36:19;21.70;99.90
27540;DHT22;15906;52.046;4.724;2023-06-19T08:38:44;21.80;99.90
27540;DHT22;15906;52.046;4.724;2023-06-19T08:41:12;21.70;99.90
27540;DHT22;15906;52.046;4.724;2023-06-19T08:43:38;21.50;99.90
27540;DHT22;15906;52.046;4.724;2023-06-19T08:46:21;21.40;99.90
27540;DHT22;15906;52.046;4.724;2023-06-19T08:48:47;21.40;99.90
27540;DHT22;15906;52.046;4.724;2023-06-19T08:51:13;21.50;99.90
27540;DHT22;15906;52.046;4.724;2023-06-19T08:53:46;21.60;99.90
27540;DHT22;15906;52.046;4.724;2023-06-19T08:56:12;21.80;99.90
27540;DHT22;15906;52.046;4.724;2023-06-19T08:58:37;22.10;99.90
27540;DHT22;15906;52.046;4.724;2023-06-19T09:01:03;22.40;99.90
27540;DHT22;15906;52.046;4.724;2023-06-19T09:03:29;22.60;99.90
27540;DHT22;15906;52.046;4.724;2023-06-19T09:05:54;22.70;99.90
27540;DHT22;15906;52.046;4.724;2023-06-19T09:08:22;22.70;99.90
27540;DHT22;15906;52.046;4.724;2023-06-19T09:10:58;22.60;99.90
27540;DHT22;15906;52.046;4.724;2023-06-19T09:13:25;22.60;99.90
27540;DHT22;15906;52.046;4.724;2023-06-19T09:15:58;22.60;99.90
27540;DHT22;15906;52.046;4.724;2023-06-19T09:18:24;22.40;99.90
27540;DHT22;15906;52.046;4.724;2023-06-19T09:20:52;22.20;99.90
27540;DHT22;15906;52.046;4.724;2023-06-19T09:23:19;22.20;99.90
27540;DHT22;15906;52.046;4.724;2023-06-19T09:25:53;22.30;99.90
27540;DHT22;15906;52.046;4.724;2023-06-19T09:28:22;22.30;99.90
27540;DHT22;15906;52.046;4.724;2023-06-19T09:30:58;22.20;99.90
27540;DHT22;15906;52.046;4.724;2023-06-19T09:33:29;22.10;99.90
27540;DHT22;15906;52.046;4.724;2023-06-19T09:35:57;22.00;99.90
27540;DHT22;15906;52.046;4.724;2023-06-19T09:38:29;21.90;99.90
27540;DHT22;15906;52.046;4.724;2023-06-19T09:40:56;21.90;99.90
27540;DHT22;15906;52.046;4.724;2023-06-19T09:43:25;21.90;99.90
27540;DHT22;15906;52.046;4.724;2023-06-19T09:45:55;21.90;99.90
27540;DHT22;15906;52.046;4.724;2023-06-19T09:48:29;21.90;99.90
27540;DHT22;15906;52.046;4.724;2023-06-19T09:51:00;22.10;99.90
27540;DHT22;15906;52.046;4.724;2023-06-19T09:53:27;22.50;99.90
27540;DHT22;15906;52.046;4.724;2023-06-19T09:55:53;22.90;99.90
27540;DHT22;15906;52.046;4.724;2023-06-19T09:58:21;23.10;99.90
27540;DHT22;15906;52.046;4.724;2023-06-19T10:00:48;23.10;99.90
27540;DHT22;15906;52.046;4.724;2023-06-19T10:03:16;23.00;99.90
27540;DHT22;15906;52.046;4.724;2023-06-19T10:05:42;23.30;99.90
27540;DHT22;15906;52.046;4.724;2023-06-19T10:08:08;23.40;99.90
27540;DHT22;15906;52.046;4.724;2023-06-19T10:10:35;23.60;99.90
27540;DHT22;15906;52.046;4.724;2023-06-19T10:13:16;23.60;99.90
27540;DHT22;15906;52.046;4.724;2023-06-19T10:15:44;23.90;99.90
27540;DHT22;15906;52.046;4.724;2023-06-19T10:18:14;23.90;99.90
27540;DHT22;15906;52.046;4.724;2023-06-19T10:20:42;23.70;99.90
27540;DHT22;15906;52.046;4.724;2023-06-19T10:25:45;24.00;99.90
27540;DHT22;15906;52.046;4.724;2023-06-19T10:31:04;24.30;99.90
27540;DHT22;15906;52.046;4.724;2023-06-19T10:33:32;24.20;99.90
27540;DHT22;15906;52.046;4.724;2023-06-19T10:38:40;24.30;98.60
27540;DHT22;15906;52.046;4.724;2023-06-19T10:41:05;24.30;99.90
27540;DHT22;15906;52.046;4.724;2023-06-19T10:43:39;24.50;99.90
27540;DHT22;15906;52.046;4.724;2023-06-19T10:46:04;24.50;98.80
27540;DHT22;15906;52.046;4.724;2023-06-19T10:48:30;24.60;99.90
27540;DHT22;15906;52.046;4.724;2023-06-19T10:50:56;24.70;99.90
27540;DHT22;15906;52.046;4.724;2023-06-19T10:53:31;24.70;99.00
27540;DHT22;15906;52.046;4.724;2023-06-19T10:56:01;24.70;99.20
27540;DHT22;15906;52.046;4.724;2023-06-19T10:58:28;24.70;97.50
27540;DHT22;15906;52.046;4.724;2023-06-19T11:00:54;24.40;98.40
27540;DHT22;15906;52.046;4.724;2023-06-19T11:03:21;24.20;99.50
27540;DHT22;15906;52.046;4.724;2023-06-19T11:05:47;24.30;99.90
27540;DHT22;15906;52.046;4.724;2023-06-19T11:08:22;24.90;99.90
27540;DHT22;15906;52.046;4.724;2023-06-19T11:10:48;25.40;98.80
27540;DHT22;15906;52.046;4.724;2023-06-19T11:13:16;25.80;97.30
27540;DHT22;15906;52.046;4.724;2023-06-19T11:15:42;25.90;98.30
27540;DHT22;15906;52.046;4.724;2023-06-19T11:18:08;26.20;98.00
27540;DHT22;15906;52.046;4.724;2023-06-19T11:20:50;26.50;97.50
27540;DHT22;15906;52.046;4.724;2023-06-19T11:23:17;26.70;97.20
27540;DHT22;15906;52.046;4.724;2023-06-19T11:25:49;27.00;95.80
27540;DHT22;15906;52.046;4.724;2023-06-19T11:28:16;27.20;95.20
27540;DHT22;15906;52.046;4.724;2023-06-19T11:30:56;27.30;93.50
27540;DHT22;15906;52.046;4.724;2023-06-19T11:33:22;27.30;93.50
27540;DHT22;15906;52.046;4.724;2023-06-19T11:35:49;27.30;92.80
27540;DHT22;15906;52.046;4.724;2023-06-19T11:38:19;27.00;92.20
27540;DHT22;15906;52.046;4.724;2023-06-19T11:40:45;26.30;92.80
27540;DHT22;15906;52.046;4.724;2023-06-19T11:43:11;26.20;95.30
27540;DHT22;15906;52.046;4.724;2023-06-19T11:45:49;26.50;94.90
27540;DHT22;15906;52.046;4.724;2023-06-19T11:48:26;26.70;92.60
27540;DHT22;15906;52.046;4.724;2023-06-19T11:50:52;26.80;95.70
27540;DHT22;15906;52.046;4.724;2023-06-19T11:53:22;27.00;94.10
27540;DHT22;15906;52.046;4.724;2023-06-19T11:55:49;27.30;93.90
27540;DHT22;15906;52.046;4.724;2023-06-19T11:58:15;27.30;92.00
27540;DHT22;15906;52.046;4.724;2023-06-19T12:00:41;27.50;92.50
27540;DHT22;15906;52.046;4.724;2023-06-19T12:03:07;27.70;90.20
27540;DHT22;15906;52.046;4.724;2023-06-19T12:05:33;27.80;90.50
27540;DHT22;15906;52.046;4.724;2023-06-19T12:07:59;27.90;91.00
27540;DHT22;15906;52.046;4.724;2023-06-19T12:10:28;28.00;90.70
27540;DHT22;15906;52.046;4.724;2023-06-19T12:12:53;28.10;92.70
27540;DHT22;15906;52.046;4.724;2023-06-19T12:15:19;28.10;91.00
27540;DHT22;15906;52.046;4.724;2023-06-19T12:17:45;28.20;92.50
27540;DHT22;15906;52.046;4.724;2023-06-19T12:20:11;28.10;90.60
27540;DHT22;15906;52.046;4.724;2023-06-19T12:22:39;27.90;91.30
27540;DHT22;15906;52.046;4.724;2023-06-19T12:25:05;27.70;92.20
27540;DHT22;15906;52.046;4.724;2023-06-19T12:27:30;27.70;90.30
27540;DHT22;15906;52.046;4.724;2023-06-19T12:29:56;27.70;93.00
27540;DHT22;15906;52.046;4.724;2023-06-19T12:32:22;27.90;88.20
27540;DHT22;15906;52.046;4.724;2023-06-19T12:34:47;28.00;90.00
27540;DHT22;15906;52.046;4.724;2023-06-19T12:37:16;28.10;91.60
27540;DHT22;15906;52.046;4.724;2023-06-19T12:39:43;28.20;87.20
27540;DHT22;15906;52.046;4.724;2023-06-19T12:42:09;28.00;85.70
27540;DHT22;15906;52.046;4.724;2023-06-19T12:44:40;27.60;90.90
27540;DHT22;15906;52.046;4.724;2023-06-19T12:47:06;27.70;91.50
27540;DHT22;15906;52.046;4.724;2023-06-19T12:49:32;27.70;90.60
27540;DHT22;15906;52.046;4.724;2023-06-19T12:51:58;27.60;92.20
27540;DHT22;15906;52.046;4.724;2023-06-19T12:54:23;27.90;90.30
27540;DHT22;15906;52.046;4.724;2023-06-19T12:56:49;27.80;89.00
27540;DHT22;15906;52.046;4.724;2023-06-19T12:59:15;27.50;88.70
27540;DHT22;15906;52.046;4.724;2023-06-19T13:01:41;27.30;87.10
27540;DHT22;15906;52.046;4.724;2023-06-19T13:04:07;27.40;89.50
27540;DHT22;15906;52.046;4.724;2023-06-19T13:06:33;27.30;91.60
27540;DHT22;15906;52.046;4.724;2023-06-19T13:08:58;27.60;91.20
27540;DHT22;15906;52.046;4.724;2023-06-19T13:11:24;27.70;90.50
27540;DHT22;15906;52.046;4.724;2023-06-19T13:13:49;27.70;89.10
27540;DHT22;15906;52.046;4.724;2023-06-19T13:16:15;27.70;91.10
27540;DHT22;15906;52.046;4.724;2023-06-19T13:18:41;27.80;86.60
27540;DHT22;15906;52.046;4.724;2023-06-19T13:21:07;27.70;85.90
27540;DHT22;15906;52.046;4.724;2023-06-19T13:23:33;27.50;85.40
27540;DHT22;15906;52.046;4.724;2023-06-19T13:25:58;27.60;88.80
27540;DHT22;15906;52.046;4.724;2023-06-19T13:28:24;27.70;90.60
27540;DHT22;15906;52.046;4.724;2023-06-19T13:30:50;27.80;91.00
27540;DHT22;15906;52.046;4.724;2023-06-19T13:33:15;27.90;87.90
27540;DHT22;15906;52.046;4.724;2023-06-19T13:35:41;27.90;83.10
27540;DHT22;15906;52.046;4.724;2023-06-19T13:38:07;27.80;89.90
27540;DHT22;15906;52.046;4.724;2023-06-19T13:40:33;27.70;85.80
27540;DHT22;15906;52.046;4.724;2023-06-19T13:42:58;27.80;85.40
27540;DHT22;15906;52.046;4.724;2023-06-19T13:45:24;27.90;82.10
27540;DHT22;15906;52.046;4.724;2023-06-19T13:47:50;27.80;88.50
27540;DHT22;15906;52.046;4.724;2023-06-19T13:50:16;27.80;86.10
27540;DHT22;15906;52.046;4.724;2023-06-19T13:52:47;28.00;88.50
27540;DHT22;15906;52.046;4.724;2023-06-19T13:55:13;28.10;88.20
27540;DHT22;15906;52.046;4.724;2023-06-19T13:57:43;28.00;86.60
27540;DHT22;15906;52.046;4.724;2023-06-19T14:00:09;28.00;84.50
27540;DHT22;15906;52.046;4.724;2023-06-19T14:02:36;28.00;86.40
27540;DHT22;15906;52.046;4.724;2023-06-19T14:05:07;28.00;87.00
27540;DHT22;15906;52.046;4.724;2023-06-19T14:07:33;28.10;84.10
27540;DHT22;15906;52.046;4.724;2023-06-19T14:10:00;27.90;84.80
27540;DHT22;15906;52.046;4.724;2023-06-19T14:12:26;27.70;89.10
27540;DHT22;15906;52.046;4.724;2023-06-19T14:45:03;26.50;91.40
27540;DHT22;15906;52.046;4.724;2023-06-19T14:47:28;26.50;88.70
27540;DHT22;15906;52.046;4.724;2023-06-19T14:49:54;26.50;87.60
27540;DHT22;15906;52.046;4.724;2023-06-19T14:52:20;26.60;90.70
27540;DHT22;15906;52.046;4.724;2023-06-19T14:54:46;26.60;88.30
27540;DHT22;15906;52.046;4.724;2023-06-19T14:57:12;26.60;90.40
27540;DHT22;15906;52.046;4.724;2023-06-19T14:59:38;26.60;88.30
27540;DHT22;15906;52.046;4.724;2023-06-19T15:02:03;26.40;90.20
27540;DHT22;15906;52.046;4.724;2023-06-19T15:04:29;26.40;89.60
27540;DHT22;15906;52.046;4.724;2023-06-19T15:06:55;26.20;88.10
27540;DHT22;15906;52.046;4.724;2023-06-19T15:09:21;26.00;90.20
27540;DHT22;15906;52.046;4.724;2023-06-19T15:11:46;25.90;90.50
27540;DHT22;15906;52.046;4.724;2023-06-19T15:14:12;26.00;91.70
27540;DHT22;15906;52.046;4.724;2023-06-19T15:16:38;26.00;91.00
27540;DHT22;15906;52.046;4.724;2023-06-19T15:19:03;26.00;90.60
27540;DHT22;15906;52.046;4.724;2023-06-19T15:21:29;26.00;89.90
27540;DHT22;15906;52.046;4.724;2023-06-19T15:23:54;26.00;91.20
27540;DHT22;15906;52.046;4.724;2023-06-19T15:26:23;25.90;91.50
27540;DHT22;15906;52.046;4.724;2023-06-19T15:28:49;25.80;91.40
27540;DHT22;15906;52.046;4.724;2023-06-19T15:31:20;25.70;91.10
27540;DHT22;15906;52.046;4.724;2023-06-19T15:33:45;25.60;91.50
27540;DHT22;15906;52.046;4.724;2023-06-19T15:36:11;25.60;90.00
27540;DHT22;15906;52.046;4.724;2023-06-19T15:38:36;25.70;87.10
27540;DHT22;15906;52.046;4.724;2023-06-19T15:41:02;25.70;90.40
27540;DHT22;15906;52.046;4.724;2023-06-19T15:43:27;25.60;91.30
27540;DHT22;15906;52.046;4.724;2023-06-19T15:45:54;25.50;91.20
27540;DHT22;15906;52.046;4.724;2023-06-19T15:48:21;25.40;90.70
27540;DHT22;15906;52.046;4.724;2023-06-19T15:50:46;25.00;91.50
27540;DHT22;15906;52.046;4.724;2023-06-19T15:53:12;25.00;91.70
27540;DHT22;15906;52.046;4.724;2023-06-19T15:55:37;25.00;92.50
27540;DHT22;15906;52.046;4.724;2023-06-19T15:58:03;25.10;92.10
27540;DHT22;15906;52.046;4.724;2023-06-19T16:00:28;25.20;92.30
27540;DHT22;15906;52.046;4.724;2023-06-19T16:02:54;25.10;91.80
27540;DHT22;15906;52.046;4.724;2023-06-19T16:05:19;25.10;92.30